createdAt,value
2018-01-31T01:52:51.921Z,8.79
2018-01-31T01:55:19.414Z,8.80
2018-01-31T01:57:46.905Z,8.76
2018-01-31T02:00:15.268Z,8.79
2018-01-31T02:02:42.933Z,8.69
2018-01-31T02:05:10.523Z,8.79
2018-01-31T02:07:38.097Z,8.88
2018-01-31T02:10:05.676Z,8.94
2018-01-31T02:12:33.241Z,8.99
2018-01-31T02:15:00.702Z,8.98
2018-01-31T02:17:28.196Z,8.94
2018-01-31T02:19:55.772Z,8.95
2018-01-31T02:22:23.255Z,8.95
2018-01-31T02:24:50.752Z,8.87
2018-01-31T02:27:18.233Z,8.80
2018-01-31T02:29:46.235Z,8.80
2018-01-31T02:32:13.835Z,8.76
2018-01-31T02:34:41.331Z,8.70
2018-01-31T02:37:08.880Z,8.56
2018-01-31T02:39:48.014Z,8.58
2018-01-31T02:42:15.532Z,8.61
2018-01-31T02:44:43.005Z,8.65
2018-01-31T02:47:10.519Z,8.65
2018-01-31T02:49:38.003Z,8.67
2018-01-31T02:52:05.544Z,8.64
2018-01-31T02:54:33.083Z,8.64
2018-01-31T02:57:00.926Z,8.66
2018-01-31T02:59:28.431Z,8.67
2018-01-31T03:01:55.908Z,8.68
2018-01-31T03:04:23.441Z,8.67
2018-01-31T03:06:50.932Z,8.67
2018-01-31T03:09:18.616Z,8.70
2018-01-31T03:11:46.169Z,8.74
2018-01-31T03:14:13.667Z,8.78
2018-01-31T03:16:41.171Z,8.84
2018-01-31T03:19:08.669Z,8.88
2018-01-31T03:21:36.278Z,8.88
2018-01-31T03:24:03.825Z,8.80
2018-01-31T03:26:31.792Z,8.77
2018-01-31T03:28:59.289Z,8.77
2018-01-31T03:31:26.790Z,8.83
2018-01-31T03:33:54.336Z,8.89
2018-01-31T03:36:22.544Z,8.72
2018-01-31T03:38:50.074Z,8.56
2018-01-31T03:41:17.541Z,8.44
2018-01-31T03:43:45.024Z,8.50
2018-01-31T03:46:12.542Z,8.55
2018-01-31T03:48:40.056Z,8.52
2018-01-31T03:51:07.551Z,8.47
2018-01-31T03:53:35.030Z,8.46
2018-01-31T03:56:02.536Z,8.48
2018-01-31T03:58:30.046Z,8.53
2018-01-31T04:00:57.589Z,8.52
2018-01-31T04:03:25.101Z,8.44
2018-01-31T04:05:52.578Z,8.47
2018-01-31T04:08:20.098Z,8.42
2018-01-31T04:10:47.585Z,8.32
2018-01-31T04:13:15.090Z,8.28
2018-01-31T04:15:42.646Z,8.29
2018-01-31T04:18:10.148Z,8.31
2018-01-31T04:20:37.678Z,8.19
2018-01-31T04:23:05.154Z,8.09
2018-01-31T04:25:32.688Z,8.14
2018-01-31T04:28:00.200Z,8.16
2018-01-31T04:30:27.717Z,8.13
2018-01-31T04:32:55.185Z,8.17
2018-01-31T04:35:22.687Z,8.16
2018-01-31T04:37:50.185Z,8.18
2018-01-31T04:40:17.695Z,8.16
2018-01-31T04:42:45.179Z,8.12
2018-01-31T04:45:12.702Z,7.97
2018-01-31T04:47:40.221Z,7.98
2018-01-31T04:50:07.770Z,8.05
2018-01-31T04:52:35.295Z,7.89
2018-01-31T04:55:02.828Z,7.88
2018-01-31T04:57:30.382Z,7.95
2018-01-31T04:59:57.871Z,7.96
2018-01-31T05:02:25.384Z,7.84
2018-01-31T05:04:53.516Z,7.91
2018-01-31T05:07:21.042Z,7.86
2018-01-31T05:09:48.659Z,7.87
2018-01-31T05:12:16.188Z,7.84
2018-01-31T05:14:43.697Z,7.95
2018-01-31T05:17:11.181Z,7.98
2018-01-31T05:19:39.936Z,8.05
2018-01-31T05:22:07.426Z,8.04
2018-01-31T05:24:35.051Z,8.05
2018-01-31T05:27:02.535Z,8.05
2018-01-31T05:29:30.041Z,8.16
2018-01-31T05:31:57.561Z,8.15
2018-01-31T05:34:25.072Z,8.11
2018-01-31T05:36:52.583Z,8.19
2018-01-31T05:39:20.058Z,8.20
2018-01-31T05:41:47.545Z,8.22
2018-01-31T05:44:15.079Z,8.18
2018-01-31T05:46:42.600Z,8.16
2018-01-31T05:49:10.117Z,8.18
2018-01-31T05:51:37.607Z,8.02
2018-01-31T05:54:05.119Z,7.97
2018-01-31T05:56:34.485Z,7.94
2018-01-31T05:59:01.966Z,7.83
2018-01-31T06:01:29.487Z,7.86
2018-01-31T06:03:56.980Z,7.84
2018-01-31T06:06:24.509Z,7.94
2018-01-31T06:08:52.018Z,7.93
2018-01-31T06:11:19.533Z,7.91
2018-01-31T06:13:47.181Z,7.93
2018-01-31T06:16:14.703Z,7.95
2018-01-31T06:18:42.223Z,7.94
2018-01-31T06:21:09.724Z,7.97
2018-01-31T06:23:37.234Z,7.98
2018-01-31T06:26:04.763Z,7.98
2018-01-31T06:28:32.358Z,7.88
2018-01-31T06:30:59.925Z,7.95
2018-01-31T06:33:27.589Z,8.03
2018-01-31T06:35:55.111Z,8.14
2018-01-31T06:38:22.722Z,8.20
2018-01-31T06:40:50.285Z,8.27
2018-01-31T06:43:17.799Z,8.37
2018-01-31T06:45:45.335Z,8.38
2018-01-31T06:48:12.822Z,8.51
2018-01-31T06:50:40.345Z,8.62
2018-01-31T06:53:07.878Z,8.67
2018-01-31T06:55:35.363Z,8.70
2018-01-31T06:58:02.861Z,8.55
2018-01-31T07:00:30.362Z,8.49
2018-01-31T07:02:57.859Z,8.51
2018-01-31T07:05:25.408Z,8.39
2018-01-31T07:07:52.877Z,8.37
2018-01-31T07:10:20.353Z,8.32
2018-01-31T07:12:48.495Z,8.22
2018-01-31T07:15:16.788Z,8.21
2018-01-31T07:17:44.638Z,8.23
2018-01-31T07:20:12.126Z,8.19
2018-01-31T07:22:39.635Z,8.28
2018-01-31T07:25:07.154Z,8.21
2018-01-31T07:27:34.646Z,8.32
2018-01-31T07:30:02.168Z,8.29
2018-01-31T07:32:29.650Z,8.40
2018-01-31T07:34:57.190Z,8.46
2018-01-31T07:37:24.661Z,8.43
2018-01-31T07:39:52.859Z,8.51
2018-01-31T07:42:20.361Z,8.49
2018-01-31T07:44:47.830Z,8.59
2018-01-31T07:47:15.362Z,8.54
2018-01-31T07:49:42.888Z,8.63
2018-01-31T07:52:10.557Z,8.64
2018-01-31T07:54:38.079Z,8.57
2018-01-31T07:57:05.915Z,8.67
2018-01-31T07:59:33.428Z,8.69
2018-01-31T08:02:00.913Z,8.74
2018-01-31T08:04:28.462Z,8.81
2018-01-31T08:06:55.944Z,8.71
2018-01-31T08:09:23.457Z,8.83
2018-01-31T08:11:50.951Z,8.89
2018-01-31T08:14:18.459Z,8.85
2018-01-31T08:16:45.941Z,9.01
2018-01-31T08:19:13.438Z,9.21
2018-01-31T08:21:40.970Z,9.36
2018-01-31T08:24:08.513Z,9.35
2018-01-31T08:26:36.025Z,9.41
2018-01-31T08:31:45.866Z,9.49
2018-01-31T08:34:13.349Z,9.41
2018-01-31T08:36:40.889Z,9.48
2018-01-31T08:39:08.436Z,9.38
2018-01-31T08:41:36.004Z,9.33
2018-01-31T08:44:03.501Z,9.42
2018-01-31T08:46:31.244Z,9.43
2018-01-31T08:48:58.761Z,9.37
2018-01-31T08:51:26.243Z,9.28
2018-01-31T08:53:55.238Z,9.41
2018-01-31T08:56:22.737Z,9.43
2018-01-31T08:58:50.224Z,9.38
2018-01-31T09:01:17.770Z,9.50
2018-01-31T09:03:45.286Z,9.41
2018-01-31T09:06:12.823Z,9.44
2018-01-31T09:08:40.317Z,9.55
2018-01-31T09:11:07.850Z,9.58
2018-01-31T09:13:35.402Z,9.65
2018-01-31T09:16:02.887Z,9.67
2018-01-31T09:18:30.597Z,9.62
2018-01-31T09:20:58.114Z,9.73
2018-01-31T09:23:25.639Z,9.88
2018-01-31T09:25:53.154Z,10.04
2018-01-31T09:28:20.991Z,10.03
2018-01-31T09:33:22.156Z,10.17
2018-01-31T09:35:49.800Z,10.32
2018-01-31T09:38:17.418Z,10.22
2018-01-31T09:40:45.079Z,10.24
2018-01-31T09:43:12.638Z,10.33
2018-01-31T09:45:40.157Z,10.36
2018-01-31T09:48:07.682Z,10.39
2018-01-31T09:50:35.968Z,10.37
2018-01-31T09:53:03.521Z,10.45
2018-01-31T09:55:31.006Z,10.57
2018-01-31T09:57:58.511Z,10.65
2018-01-31T10:00:26.021Z,10.69
2018-01-31T10:02:53.485Z,10.73
2018-01-31T10:05:20.987Z,10.87
2018-01-31T10:07:48.525Z,11.09
2018-01-31T10:10:16.095Z,11.36
2018-01-31T10:12:43.603Z,11.66
2018-01-31T10:15:11.098Z,11.93
2018-01-31T10:17:38.596Z,11.83
2018-01-31T10:20:06.728Z,11.82
2018-01-31T10:22:34.310Z,11.74
2018-01-31T10:25:01.835Z,11.85
2018-01-31T10:27:29.343Z,11.93
2018-01-31T10:29:56.833Z,11.98
2018-01-31T10:32:24.330Z,11.76
2018-01-31T10:34:51.847Z,11.60
2018-01-31T10:37:19.345Z,11.48
2018-01-31T10:39:46.871Z,11.57
2018-01-31T10:42:14.352Z,11.76
2018-01-31T10:44:41.859Z,11.94
2018-01-31T10:47:09.338Z,11.73
2018-01-31T10:49:36.850Z,11.45
2018-01-31T10:52:05.123Z,11.30
2018-01-31T10:57:28.965Z,11.49
2018-01-31T10:59:27.899Z,11.28
2018-01-31T11:01:55.413Z,11.48
2018-01-31T11:04:23.269Z,11.52
2018-01-31T11:06:50.787Z,11.58
2018-01-31T11:09:19.021Z,11.60
2018-01-31T11:11:46.547Z,11.46
2018-01-31T11:14:14.029Z,11.22
2018-01-31T11:16:41.518Z,11.29
2018-01-31T11:19:09.039Z,11.10
2018-01-31T11:21:36.517Z,10.99
2018-01-31T11:24:04.041Z,10.82
2018-01-31T11:26:31.519Z,10.78
2018-01-31T11:28:59.029Z,10.79
2018-01-31T11:31:26.658Z,10.89
2018-01-31T11:33:54.258Z,11.01
2018-01-31T11:36:21.808Z,11.17
2018-01-31T11:38:49.305Z,11.01
2018-01-31T11:41:16.783Z,10.91
2018-01-31T11:43:44.319Z,10.99
2018-01-31T11:46:11.827Z,11.09
2018-01-31T11:48:39.316Z,11.12
2018-01-31T11:51:06.834Z,11.09
2018-01-31T11:53:34.342Z,11.12
2018-01-31T11:56:01.825Z,11.09
2018-01-31T11:58:29.313Z,11.15
2018-01-31T12:00:57.586Z,11.07
2018-01-31T12:03:25.075Z,10.95
2018-01-31T12:05:52.593Z,10.93
2018-01-31T12:08:20.078Z,10.86
2018-01-31T12:10:48.176Z,10.87
2018-01-31T12:16:32.118Z,11.18
2018-01-31T12:22:17.781Z,11.18
2018-01-31T12:24:57.116Z,11.26
2018-01-31T12:27:36.512Z,11.14
2018-01-31T12:30:15.705Z,11.11
2018-01-31T12:32:54.976Z,11.07
2018-01-31T12:35:34.761Z,11.09
2018-01-31T12:38:14.063Z,11.14
2018-01-31T12:40:41.057Z,11.22
2018-01-31T12:43:08.270Z,11.13
2018-01-31T12:45:35.231Z,11.00
2018-01-31T12:48:04.425Z,11.03
2018-01-31T12:50:43.809Z,11.05
2018-01-31T12:53:23.202Z,11.03
2018-01-31T12:56:02.608Z,11.07
2018-01-31T12:58:42.092Z,11.16
2018-01-31T13:04:27.095Z,10.99
2018-01-31T13:07:06.540Z,10.96
2018-01-31T13:09:45.933Z,10.86
2018-01-31T13:12:25.433Z,10.90
2018-01-31T13:15:05.583Z,10.81
2018-01-31T13:17:45.572Z,10.84
2018-01-31T13:23:13.532Z,10.70
2018-01-31T13:25:52.953Z,10.74
2018-01-31T13:28:38.129Z,10.86
2018-01-31T13:31:22.127Z,10.87
2018-01-31T13:34:01.594Z,10.90
2018-01-31T13:36:40.781Z,10.84
2018-01-31T13:39:20.246Z,10.87
2018-01-31T13:41:59.676Z,10.84
2018-01-31T13:44:39.044Z,10.84
2018-01-31T13:47:18.273Z,10.87
2018-01-31T13:49:57.567Z,10.96
2018-01-31T13:52:36.964Z,10.95
2018-01-31T13:55:16.413Z,11.07
2018-01-31T13:57:55.730Z,11.06
2018-01-31T14:00:35.127Z,11.09
2018-01-31T14:03:14.654Z,11.13
2018-01-31T14:05:54.467Z,11.10
2018-01-31T14:08:33.854Z,11.15
2018-01-31T14:11:13.297Z,11.18
2018-01-31T14:16:59.452Z,11.25
2018-01-31T14:19:38.857Z,11.23
2018-01-31T14:22:18.674Z,11.20
2018-01-31T14:24:58.335Z,11.28
2018-01-31T14:27:37.696Z,11.25
2018-01-31T14:30:17.121Z,11.18
2018-01-31T14:32:56.420Z,11.11
2018-01-31T14:35:35.816Z,11.14
2018-01-31T14:38:02.782Z,11.18
2018-01-31T14:40:29.778Z,11.24
2018-01-31T14:42:56.772Z,11.07
2018-01-31T14:45:23.818Z,11.11
2018-01-31T14:47:51.038Z,11.20
2018-01-31T14:50:17.970Z,11.18
2018-01-31T14:52:44.944Z,11.15
2018-01-31T14:55:11.916Z,11.10
2018-01-31T14:57:39.222Z,11.10
2018-01-31T15:00:06.159Z,11.15
2018-01-31T15:02:33.124Z,11.16
2018-01-31T15:05:00.077Z,11.14
2018-01-31T15:07:27.011Z,11.10
2018-01-31T15:09:54.006Z,11.09
2018-01-31T15:12:20.964Z,11.13
2018-01-31T15:14:48.302Z,11.16
2018-01-31T15:17:15.999Z,10.94
2018-01-31T15:19:43.002Z,11.02
2018-01-31T15:22:09.978Z,11.10
2018-01-31T15:24:37.597Z,11.17
2018-01-31T15:27:05.194Z,11.18
2018-01-31T15:29:32.216Z,11.12
2018-01-31T15:31:59.223Z,11.06
2018-01-31T15:34:26.178Z,11.09
2018-01-31T15:36:53.175Z,11.12
2018-01-31T15:39:20.114Z,11.17
2018-01-31T15:41:47.081Z,11.24
2018-01-31T15:44:14.278Z,11.30
2018-01-31T15:46:41.263Z,11.32
2018-01-31T15:49:08.202Z,11.29
2018-01-31T15:51:35.183Z,11.29
2018-01-31T15:54:02.138Z,11.31
2018-01-31T15:56:29.130Z,11.31
2018-01-31T15:58:56.095Z,11.27
2018-01-31T16:01:23.053Z,11.26
2018-01-31T16:03:50.137Z,11.28
2018-01-31T16:06:17.081Z,11.30
2018-01-31T16:08:44.117Z,11.29
2018-01-31T16:11:11.422Z,11.30
2018-01-31T16:13:38.507Z,11.31
2018-01-31T16:16:05.497Z,11.26
2018-01-31T16:18:44.774Z,11.20
2018-01-31T16:21:26.176Z,11.21
2018-01-31T16:23:53.704Z,11.21
2018-01-31T16:26:21.240Z,11.13
2018-01-31T16:29:00.663Z,11.11
2018-01-31T16:31:39.926Z,10.97
2018-01-31T16:34:07.498Z,11.02
2018-01-31T16:36:34.986Z,10.94
2018-01-31T16:39:02.491Z,10.96
2018-01-31T16:41:30.953Z,11.03
2018-01-31T16:43:58.500Z,11.07
2018-01-31T16:46:25.978Z,10.99
2018-01-31T16:48:53.823Z,10.95
2018-01-31T16:51:21.413Z,10.96
2018-01-31T16:53:48.962Z,11.00
2018-01-31T16:56:16.456Z,10.93
2018-01-31T16:58:43.939Z,11.00
2018-01-31T17:01:11.477Z,10.96
2018-01-31T17:03:39.313Z,10.98
2018-01-31T17:06:06.866Z,10.91
2018-01-31T17:08:34.450Z,10.86
2018-01-31T17:11:01.979Z,10.83
2018-01-31T17:13:29.516Z,10.85
2018-01-31T17:15:57.032Z,10.89
2018-01-31T17:18:24.613Z,10.90
2018-01-31T17:20:52.133Z,10.78
2018-01-31T17:23:19.643Z,10.71
2018-01-31T17:25:59.172Z,10.76
2018-01-31T17:28:27.141Z,10.64
2018-01-31T17:30:54.668Z,10.78
2018-01-31T17:33:22.148Z,10.91
2018-01-31T17:35:49.928Z,11.07
2018-01-31T17:38:18.047Z,11.12
2018-01-31T17:40:46.245Z,10.93
2018-01-31T17:43:13.802Z,10.70
2018-01-31T17:45:41.845Z,10.62
2018-01-31T17:48:09.762Z,10.69
2018-01-31T17:50:37.279Z,10.65
2018-01-31T17:53:05.683Z,10.48
2018-01-31T17:55:33.717Z,10.33
2018-01-31T17:58:01.274Z,10.34
2018-01-31T18:00:28.809Z,10.24
2018-01-31T18:02:56.317Z,10.03
2018-01-31T18:05:23.931Z,10.06
2018-01-31T18:07:51.787Z,9.98
2018-01-31T18:10:19.323Z,9.94
2018-01-31T18:12:46.850Z,9.98
2018-01-31T18:15:14.459Z,9.87
2018-01-31T18:17:41.978Z,9.95
2018-01-31T18:20:09.514Z,9.87
2018-01-31T18:22:37.039Z,9.80
2018-01-31T18:25:04.572Z,9.81
2018-01-31T18:27:32.077Z,9.90
2018-01-31T18:30:00.425Z,9.73
2018-01-31T18:32:28.046Z,9.56
2018-01-31T18:34:55.668Z,9.52
2018-01-31T18:37:23.274Z,9.49
2018-01-31T18:39:50.889Z,9.47
2018-01-31T18:42:18.468Z,9.44
2018-01-31T18:44:46.024Z,9.35
2018-01-31T18:47:13.561Z,9.21
2018-01-31T18:49:41.699Z,9.20
2018-01-31T18:52:09.957Z,9.14
2018-01-31T18:54:37.494Z,9.03
2018-01-31T18:57:05.159Z,8.97
2018-01-31T18:59:33.101Z,8.89
2018-01-31T19:02:00.661Z,8.92
2018-01-31T19:04:28.314Z,8.79
2018-01-31T19:06:55.790Z,8.78
2018-01-31T19:09:23.349Z,8.75
2018-01-31T19:11:50.837Z,8.74
2018-01-31T19:14:18.379Z,8.74
2018-01-31T19:16:45.861Z,8.73
2018-01-31T19:19:14.384Z,8.67
2018-01-31T19:21:42.147Z,8.67
2018-01-31T19:24:10.018Z,8.56
2018-01-31T19:26:37.580Z,8.51
2018-01-31T19:29:06.032Z,8.58
2018-01-31T19:31:33.652Z,8.47
2018-01-31T19:34:01.831Z,8.44
2018-01-31T19:36:29.424Z,8.48
2018-01-31T19:38:56.973Z,8.48
2018-01-31T19:41:24.482Z,8.33
2018-01-31T19:43:52.076Z,8.36
2018-01-31T19:46:19.953Z,8.35
2018-01-31T19:48:47.513Z,8.20
2018-01-31T19:51:15.334Z,8.24
2018-01-31T19:53:42.842Z,8.29
2018-01-31T19:56:10.418Z,8.16
2018-01-31T19:58:38.310Z,8.15
2018-01-31T20:01:05.879Z,8.09
2018-01-31T20:03:34.061Z,8.12
2018-01-31T20:06:01.619Z,8.17
2018-01-31T20:08:29.163Z,8.13
2018-01-31T20:10:56.700Z,8.04
2018-01-31T20:13:24.985Z,8.08
2018-01-31T20:15:52.538Z,8.07
2018-01-31T20:18:20.181Z,8.08
2018-01-31T20:20:47.989Z,8.07
2018-01-31T20:23:16.322Z,8.05
2018-01-31T20:25:43.826Z,7.98
2018-01-31T20:28:11.363Z,8.00
2018-01-31T20:30:38.957Z,7.97
2018-01-31T20:33:07.986Z,7.97
2018-01-31T20:35:40.207Z,8.04
2018-01-31T20:38:08.608Z,7.93
2018-01-31T20:40:36.236Z,7.91
2018-01-31T20:43:03.787Z,7.85
2018-01-31T20:45:31.749Z,7.92
2018-01-31T20:47:59.347Z,8.00
2018-01-31T20:50:26.897Z,7.88
2018-01-31T20:52:54.439Z,7.88
2018-01-31T20:55:21.943Z,7.90
2018-01-31T20:57:49.645Z,7.85
2018-01-31T21:00:17.206Z,7.84
2018-01-31T21:02:44.919Z,7.78
2018-01-31T21:05:12.500Z,7.73
2018-01-31T21:07:40.049Z,7.73
2018-01-31T21:10:07.652Z,7.81
2018-01-31T21:12:35.179Z,7.77
2018-01-31T21:15:02.828Z,7.84
2018-01-31T21:17:30.386Z,7.71
2018-01-31T21:19:57.955Z,7.67
2018-01-31T21:22:25.515Z,7.69
2018-01-31T21:24:53.220Z,7.55
2018-01-31T21:27:20.882Z,7.63
2018-01-31T21:29:49.348Z,7.61
2018-01-31T21:32:16.933Z,7.53
2018-01-31T21:34:44.981Z,7.50
2018-01-31T21:37:12.822Z,7.50
2018-01-31T21:39:40.316Z,7.53
2018-01-31T21:42:07.856Z,7.52
2018-01-31T21:44:35.374Z,7.56
2018-01-31T21:47:02.867Z,7.74
2018-01-31T21:49:30.363Z,7.66
2018-01-31T21:51:57.900Z,7.58
2018-01-31T21:54:25.375Z,7.61
2018-01-31T21:56:52.873Z,7.66
2018-01-31T21:59:20.380Z,7.65
2018-01-31T22:01:47.901Z,7.56
2018-01-31T22:04:15.995Z,7.51
2018-01-31T22:06:43.522Z,7.49
2018-01-31T22:09:11.009Z,7.50
2018-01-31T22:11:38.533Z,7.55
2018-01-31T22:14:06.031Z,7.52
2018-01-31T22:16:33.578Z,7.56
2018-01-31T22:19:01.129Z,7.50
2018-01-31T22:21:28.863Z,7.59
2018-01-31T22:23:56.441Z,7.52
2018-01-31T22:26:24.010Z,7.45
2018-01-31T22:28:51.510Z,7.42
2018-01-31T22:31:19.064Z,7.36
2018-01-31T22:33:46.659Z,7.38
2018-01-31T22:36:14.161Z,7.43
2018-01-31T22:38:41.683Z,7.60
2018-01-31T22:41:09.208Z,7.60
2018-01-31T22:43:36.692Z,7.46
2018-01-31T22:46:04.827Z,7.44
2018-01-31T22:48:33.167Z,7.55
2018-01-31T22:51:00.660Z,7.45
2018-01-31T22:53:28.229Z,7.49
2018-01-31T22:55:55.726Z,7.52
2018-01-31T22:58:23.287Z,7.48
2018-01-31T23:00:50.828Z,7.49
2018-01-31T23:03:18.369Z,7.46
2018-01-31T23:05:45.899Z,7.53
2018-01-31T23:08:13.413Z,7.56
2018-01-31T23:10:40.958Z,7.52
2018-01-31T23:13:13.982Z,7.50
2018-01-31T23:15:41.764Z,7.50
2018-01-31T23:18:14.797Z,7.49
2018-01-31T23:20:42.365Z,7.53
2018-01-31T23:23:09.859Z,7.56
2018-01-31T23:25:37.395Z,7.55
2018-01-31T23:28:04.893Z,7.58
2018-01-31T23:30:32.362Z,7.53
2018-01-31T23:32:59.871Z,7.59
2018-01-31T23:35:27.346Z,7.62
2018-01-31T23:37:54.935Z,7.67
2018-01-31T23:40:22.447Z,7.65
2018-01-31T23:42:49.912Z,7.58
2018-01-31T23:45:17.429Z,7.55
2018-01-31T23:47:44.911Z,7.50
2018-01-31T23:50:12.427Z,7.48
2018-01-31T23:52:39.924Z,7.55
2018-01-31T23:55:08.001Z,7.48
2018-01-31T23:57:35.505Z,7.48
